Terminal Aerodrome Forecast
Issued by NWS Corpus Christi, TX

Home | Current Version | Previous Version | Text Only | Print | Product List | Glossary On
Versions: 1 2 3 4 5 6 7 8 9 10 11 12 13 14 15 16 17 18 19 20 21 22 23 24 25 26
000
FTUS44 KCRP 060931 AAA
TAFVCT
TAF AMD
KVCT 060931Z 0610/0706 24003KT 3SM BR FEW004
      TEMPO 0612/0614 1SM BR
     FM061400 25008KT P6SM SKC
     FM062200 34008KT P6SM SKC
     FM070400 02006KT 6SM BR SCT012=

USA.gov is the U.S. government's official web portal to all federal, state and local government web resources and services.